createdAt,value
2023-05-24T00:00:31.741Z,101428.94
2023-05-24T00:03:35.056Z,101433.44
2023-05-24T00:06:38.378Z,101434.03
2023-05-24T00:09:41.119Z,101433.94
2023-05-24T00:12:45.386Z,101436.84
2023-05-24T00:15:48.176Z,101436.94
2023-05-24T00:18:52.186Z,101442.63
2023-05-24T00:21:55.562Z,101442.28
2023-05-24T00:24:58.326Z,101446.34
2023-05-24T00:28:02.711Z,101441.53
2023-05-24T00:31:05.560Z,101440.38
2023-05-24T00:34:08.689Z,101439.03
2023-05-24T00:37:12.398Z,101444.88
2023-05-24T00:40:15.373Z,101438.41
2023-05-24T00:43:19.736Z,101443.28
2023-05-24T00:46:27.342Z,101441.19
2023-05-24T00:49:30.442Z,101433.53
2023-05-24T00:52:33.558Z,101439.56
2023-05-24T00:55:36.635Z,101440.78
2023-05-24T00:58:41.193Z,101446.03
2023-05-24T01:01:46.913Z,101447.53
2023-05-24T01:04:50.103Z,101438.28
2023-05-24T01:08:05.248Z,101450.69
2023-05-24T01:11:16.402Z,101445.19
2023-05-24T01:14:27.513Z,101443.44
2023-05-24T01:17:34.001Z,101436.38
2023-05-24T01:20:39.214Z,101445.44
2023-05-24T01:23:48.733Z,101439.69
2023-05-24T01:27:08.870Z,101446.72
2023-05-24T01:30:13.225Z,101445.63
2023-05-24T01:33:16.682Z,101443.34
2023-05-24T01:36:19.575Z,101449.59
2023-05-24T01:39:23.811Z,101455.03
2023-05-24T01:42:35.346Z,101456.25
2023-05-24T01:48:39.357Z,101455.38
2023-05-24T01:51:50.447Z,101451.50
2023-05-24T01:54:54.466Z,101449.50
2023-05-24T01:58:01.838Z,101448.09
2023-05-24T02:01:05.055Z,101444.19
2023-05-24T02:04:09.280Z,101444.41
2023-05-24T02:07:12.109Z,101447.34
2023-05-24T02:10:14.975Z,101445.91
2023-05-24T02:13:18.316Z,101449.25
2023-05-24T02:16:23.913Z,101457.81
2023-05-24T02:19:28.060Z,101451.00
2023-05-24T02:22:30.985Z,101454.31
2023-05-24T02:25:34.262Z,101462.81
2023-05-24T02:28:37.018Z,101464.16
2023-05-24T02:31:40.015Z,101464.94
2023-05-24T02:34:44.186Z,101459.47
2023-05-24T02:37:47.154Z,101456.22
2023-05-24T02:40:50.008Z,101458.97
2023-05-24T02:43:52.972Z,101443.50
2023-05-24T02:46:55.873Z,101445.50
2023-05-24T02:50:00.097Z,101457.09
2023-05-24T02:53:02.991Z,101463.03
2023-05-24T02:56:07.399Z,101453.31
2023-05-24T02:59:10.161Z,101449.34
2023-05-24T03:02:14.973Z,101452.56
2023-05-24T03:05:19.481Z,101459.16
2023-05-24T03:08:22.370Z,101450.91
2023-05-24T03:11:26.166Z,101449.97
2023-05-24T03:14:29.169Z,101458.56
2023-05-24T03:17:31.962Z,101450.75
2023-05-24T03:20:36.239Z,101452.31
2023-05-24T03:23:39.068Z,101453.22
2023-05-24T03:26:41.863Z,101448.91
2023-05-24T03:29:44.755Z,101460.19
2023-05-24T03:32:47.781Z,101457.34
2023-05-24T03:35:51.944Z,101458.28
2023-05-24T03:38:55.044Z,101459.38
2023-05-24T03:41:57.789Z,101458.03
2023-05-24T03:45:00.706Z,101462.53
2023-05-24T03:48:03.608Z,101466.03
2023-05-24T03:51:09.345Z,101470.13
2023-05-24T03:54:12.272Z,101474.16
2023-05-24T03:57:15.060Z,101468.78
2023-05-24T04:00:18.360Z,101475.72
2023-05-24T04:03:21.290Z,101479.19
2023-05-24T04:06:29.210Z,101475.94
2023-05-24T04:09:33.761Z,101480.09
2023-05-24T04:12:36.722Z,101481.19
2023-05-24T04:15:39.574Z,101481.16
2023-05-24T04:18:42.423Z,101483.16
2023-05-24T04:21:46.880Z,101481.28
2023-05-24T04:24:49.890Z,101470.00
2023-05-24T04:27:52.698Z,101482.56
2023-05-24T04:30:57.807Z,101479.56
2023-05-24T04:34:00.644Z,101481.22
2023-05-24T04:37:05.081Z,101492.22
2023-05-24T04:40:09.452Z,101487.81
2023-05-24T04:43:12.253Z,101486.97
2023-05-24T04:46:15.091Z,101495.13
2023-05-24T04:49:17.913Z,101498.56
2023-05-24T04:52:22.234Z,101502.00
2023-05-24T04:55:25.186Z,101508.75
2023-05-24T04:58:27.945Z,101512.91
2023-05-24T05:01:31.177Z,101522.06
2023-05-24T05:04:33.996Z,101529.44
2023-05-24T05:07:38.544Z,101532.22
2023-05-24T05:10:41.637Z,101527.53
2023-05-24T05:13:44.571Z,101528.84
2023-05-24T05:16:47.612Z,101528.06
2023-05-24T05:19:50.619Z,101540.84
2023-05-24T05:22:54.804Z,101539.19
2023-05-24T05:25:57.982Z,101538.22
2023-05-24T05:29:00.881Z,101539.09
2023-05-24T05:32:03.860Z,101530.66
2023-05-24T05:35:07.733Z,101538.34
2023-05-24T05:38:11.838Z,101550.56
2023-05-24T05:41:14.588Z,101552.56
2023-05-24T05:44:17.483Z,101549.19
2023-05-24T05:47:20.470Z,101556.50
2023-05-24T05:50:23.302Z,101555.84
2023-05-24T05:53:27.542Z,101559.47
2023-05-24T05:56:30.475Z,101567.59
2023-05-24T05:59:35.977Z,101570.97
2023-05-24T06:02:39.103Z,101567.78
2023-05-24T06:05:42.594Z,101570.81
2023-05-24T06:08:46.754Z,101573.75
2023-05-24T06:11:49.558Z,101573.47
2023-05-24T06:14:52.449Z,101590.56
2023-05-24T06:17:55.539Z,101580.84
2023-05-24T06:20:58.456Z,101588.81
2023-05-24T06:24:02.747Z,101590.63
2023-05-24T06:27:06.332Z,101595.13
2023-05-24T06:30:10.216Z,101601.00
2023-05-24T06:33:13.219Z,101601.16
2023-05-24T06:36:15.980Z,101611.19
2023-05-24T06:39:21.017Z,101606.19
2023-05-24T06:42:23.945Z,101604.56
2023-05-24T06:45:26.774Z,101607.53
2023-05-24T06:48:29.808Z,101615.13
2023-05-24T06:51:34.511Z,101609.16
2023-05-24T06:54:38.750Z,101618.06
2023-05-24T06:57:41.756Z,101613.13
2023-05-24T07:00:46.007Z,101621.75
2023-05-24T07:03:49.144Z,101621.03
2023-05-24T07:06:52.080Z,101626.19
2023-05-24T07:09:56.486Z,101629.13
2023-05-24T07:12:59.390Z,101620.00
2023-05-24T07:16:02.161Z,101628.72
2023-05-24T07:19:05.231Z,101634.94
2023-05-24T07:22:08.186Z,101634.47
2023-05-24T07:25:12.834Z,101640.09
2023-05-24T07:28:19.796Z,101645.13
2023-05-24T07:31:22.911Z,101645.09
2023-05-24T07:34:27.729Z,101649.63
2023-05-24T07:37:31.124Z,101648.50
2023-05-24T07:40:35.403Z,101658.34
2023-05-24T07:43:38.426Z,101652.53
2023-05-24T07:46:41.359Z,101654.56
2023-05-24T07:49:44.379Z,101656.69
2023-05-24T07:52:47.176Z,101655.16
2023-05-24T07:55:51.747Z,101661.91
2023-05-24T07:58:59.310Z,101671.69
2023-05-24T08:02:05.491Z,101678.59
2023-05-24T08:05:10.186Z,101675.00
2023-05-24T08:08:13.983Z,101678.06
2023-05-24T08:11:18.332Z,101680.91
2023-05-24T08:14:21.733Z,101670.53
2023-05-24T08:17:24.569Z,101683.56
2023-05-24T08:20:27.548Z,101678.09
2023-05-24T08:23:30.882Z,101683.44
2023-05-24T08:26:35.041Z,101682.63
2023-05-24T08:29:38.751Z,101681.47
2023-05-24T08:32:41.644Z,101678.84
2023-05-24T08:35:44.783Z,101675.34
2023-05-24T08:38:47.751Z,101686.22
2023-05-24T08:42:08.121Z,101685.25
2023-05-24T08:45:13.964Z,101689.47
2023-05-24T08:48:18.208Z,101693.69
2023-05-24T08:51:21.914Z,101699.03
2023-05-24T08:54:24.771Z,101702.53
2023-05-24T08:57:30.821Z,101707.53
2023-05-24T09:00:33.639Z,101705.53
2023-05-24T09:03:37.992Z,101710.78
2023-05-24T09:06:41.413Z,101709.50
2023-05-24T09:09:48.106Z,101707.00
2023-05-24T09:12:56.501Z,101715.19
2023-05-24T09:16:01.126Z,101717.00
2023-05-24T09:19:04.220Z,101717.06
2023-05-24T09:22:08.093Z,101704.84
2023-05-24T09:25:12.054Z,101712.56
2023-05-24T09:28:17.815Z,101710.13
2023-05-24T09:31:20.679Z,101707.53
2023-05-24T09:34:23.496Z,101708.94
2023-05-24T09:37:32.377Z,101706.63
2023-05-24T09:40:35.882Z,101710.13
2023-05-24T09:43:49.568Z,101697.03
2023-05-24T09:46:52.721Z,101706.56
2023-05-24T09:49:55.530Z,101698.94
2023-05-24T09:52:58.469Z,101705.16
2023-05-24T09:56:01.754Z,101698.06
2023-05-24T09:59:10.144Z,101698.41
2023-05-24T10:02:13.674Z,101699.63
2023-05-24T10:05:16.723Z,101702.72
2023-05-24T10:08:20.397Z,101700.38
2023-05-24T10:11:23.206Z,101709.16
2023-05-24T10:14:29.214Z,101710.50
2023-05-24T10:17:32.349Z,101720.16
2023-05-24T10:20:35.487Z,101715.56
2023-05-24T10:23:40.275Z,101722.44
2023-05-24T10:26:43.469Z,101713.78
2023-05-24T10:30:00.219Z,101713.81
2023-05-24T10:33:05.071Z,101723.31
2023-05-24T10:36:10.854Z,101723.09
2023-05-24T10:39:14.355Z,101722.56
2023-05-24T10:42:17.987Z,101722.56
2023-05-24T10:45:37.659Z,101728.16
2023-05-24T10:48:41.466Z,101728.38
2023-05-24T10:51:44.532Z,101726.53
2023-05-24T10:55:05.016Z,101724.09
2023-05-24T10:58:08.481Z,101730.81
2023-05-24T11:01:14.969Z,101731.28
2023-05-24T11:04:19.697Z,101724.00
2023-05-24T11:07:22.690Z,101720.19
2023-05-24T11:10:32.041Z,101724.66
2023-05-24T11:13:34.963Z,101724.78
2023-05-24T11:16:40.463Z,101727.34
2023-05-24T11:19:48.317Z,101729.09
2023-05-24T11:22:51.928Z,101724.63
2023-05-24T11:25:54.753Z,101733.56
2023-05-24T11:28:58.303Z,101731.56
2023-05-24T11:32:05.307Z,101731.53
2023-05-24T11:35:11.452Z,101739.41
2023-05-24T11:38:15.334Z,101728.22
2023-05-24T11:41:18.938Z,101728.44
2023-05-24T11:44:21.826Z,101733.44
2023-05-24T11:47:26.086Z,101736.28
2023-05-24T11:50:29.006Z,101739.00
2023-05-24T11:53:33.986Z,101732.31
2023-05-24T11:56:38.152Z,101733.16
2023-05-24T11:59:42.979Z,101742.84
2023-05-24T12:02:49.397Z,101739.00
2023-05-24T12:05:52.789Z,101733.69
2023-05-24T12:08:55.751Z,101742.28
2023-05-24T12:11:59.042Z,101745.56
2023-05-24T12:15:02.234Z,101742.50
2023-05-24T12:18:06.498Z,101750.94
2023-05-24T12:21:11.698Z,101744.25
2023-05-24T12:24:16.239Z,101738.09
2023-05-24T12:27:18.978Z,101747.84
2023-05-24T12:30:24.252Z,101744.91
2023-05-24T12:33:29.389Z,101741.19
2023-05-24T12:36:32.401Z,101750.56
2023-05-24T12:39:37.997Z,101734.16
2023-05-24T12:42:40.766Z,101742.34
2023-05-24T12:45:43.657Z,101742.13
2023-05-24T12:48:48.166Z,101745.41
2023-05-24T12:51:51.351Z,101745.06
2023-05-24T12:54:54.292Z,101741.22
2023-05-24T12:57:58.876Z,101752.59
2023-05-24T13:01:01.864Z,101749.47
2023-05-24T13:04:06.483Z,101744.53
2023-05-24T13:07:09.340Z,101751.78
2023-05-24T13:10:12.801Z,101742.63
2023-05-24T13:13:15.882Z,101744.84
2023-05-24T13:16:20.121Z,101741.25
2023-05-24T13:19:24.468Z,101742.13
2023-05-24T13:22:27.286Z,101741.53
2023-05-24T13:25:30.423Z,101742.78
2023-05-24T13:28:35.165Z,101744.44
2023-05-24T13:31:38.566Z,101741.69
2023-05-24T13:34:43.320Z,101740.19
2023-05-24T13:37:46.167Z,101747.41
2023-05-24T13:40:49.597Z,101747.44
2023-05-24T13:43:53.434Z,101750.22
2023-05-24T13:46:56.766Z,101754.66
2023-05-24T13:50:01.093Z,101753.22
2023-05-24T13:53:04.999Z,101739.97
2023-05-24T13:56:08.513Z,101743.75
2023-05-24T13:59:12.950Z,101739.72
2023-05-24T14:02:16.515Z,101740.34
2023-05-24T14:08:27.118Z,101741.25
2023-05-24T14:11:31.732Z,101740.44
2023-05-24T14:17:41.149Z,101737.66
2023-05-24T14:20:45.603Z,101734.50
2023-05-24T14:23:48.440Z,101736.25
2023-05-24T14:26:51.229Z,101734.13
2023-05-24T14:29:54.090Z,101740.44
2023-05-24T14:32:57.021Z,101722.16
2023-05-24T14:36:01.319Z,101733.00
2023-05-24T14:39:04.273Z,101735.78
2023-05-24T14:42:07.389Z,101727.63
2023-05-24T14:45:11.537Z,101733.38
2023-05-24T14:48:15.106Z,101734.22
2023-05-24T14:51:20.629Z,101728.59
2023-05-24T14:54:23.474Z,101729.56
2023-05-24T14:57:26.422Z,101729.50
2023-05-24T15:00:29.218Z,101727.31
2023-05-24T15:03:32.370Z,101732.16
2023-05-24T15:06:36.894Z,101738.50
2023-05-24T15:09:39.639Z,101733.13
2023-05-24T15:12:42.682Z,101734.47
2023-05-24T15:15:45.454Z,101737.25
2023-05-24T15:18:48.343Z,101729.06
2023-05-24T15:21:52.647Z,101731.25
2023-05-24T15:24:55.446Z,101730.59
2023-05-24T15:27:58.354Z,101735.28
2023-05-24T15:31:01.924Z,101731.31
2023-05-24T15:34:05.479Z,101727.63
2023-05-24T15:37:09.762Z,101741.44
2023-05-24T15:40:15.062Z,101729.84
2023-05-24T15:43:19.708Z,101726.94
2023-05-24T15:46:23.052Z,101733.19
2023-05-24T15:49:25.892Z,101736.28
2023-05-24T15:52:30.046Z,101736.06
2023-05-24T15:55:33.673Z,101736.16
2023-05-24T15:58:36.632Z,101744.00
2023-05-24T16:01:39.387Z,101738.31
2023-05-24T16:04:42.291Z,101736.03
2023-05-24T16:07:46.539Z,101738.56
2023-05-24T16:10:49.277Z,101738.41
2023-05-24T16:13:53.620Z,101727.59
2023-05-24T16:16:58.609Z,101732.03
2023-05-24T16:20:02.046Z,101735.38
2023-05-24T16:23:06.384Z,101730.72
2023-05-24T16:26:09.153Z,101730.19
2023-05-24T16:29:13.335Z,101727.97
2023-05-24T16:32:16.344Z,101734.66
2023-05-24T16:35:19.364Z,101743.81
2023-05-24T16:38:23.767Z,101734.09
2023-05-24T16:41:27.214Z,101736.88
2023-05-24T16:44:30.212Z,101734.63
2023-05-24T16:47:33.199Z,101745.47
2023-05-24T16:50:36.395Z,101743.56
2023-05-24T16:53:40.564Z,101746.31
2023-05-24T16:56:43.545Z,101736.09
2023-05-24T16:59:50.596Z,101746.28
2023-05-24T17:02:54.652Z,101743.84
2023-05-24T17:06:03.382Z,101745.47
2023-05-24T17:09:08.232Z,101745.19
2023-05-24T17:12:11.007Z,101744.34
2023-05-24T17:15:14.094Z,101738.22
2023-05-24T17:18:17.186Z,101744.59
2023-05-24T17:21:21.240Z,101743.75
2023-05-24T17:24:27.781Z,101751.53
2023-05-24T17:27:30.578Z,101751.50
2023-05-24T17:30:33.468Z,101756.94
2023-05-24T17:33:36.596Z,101752.56
2023-05-24T17:36:39.641Z,101749.47
2023-05-24T17:39:43.988Z,101755.22
2023-05-24T17:42:46.807Z,101762.16
2023-05-24T17:45:49.708Z,101761.88
2023-05-24T17:48:53.032Z,101763.28
2023-05-24T17:51:55.837Z,101759.09
2023-05-24T17:55:00.112Z,101764.66
2023-05-24T17:58:03.863Z,101765.88
2023-05-24T18:01:07.911Z,101770.22
2023-05-24T18:04:11.140Z,101771.06
2023-05-24T18:07:15.184Z,101774.94
2023-05-24T18:10:19.724Z,101777.69
2023-05-24T18:13:22.672Z,101776.31
2023-05-24T18:16:25.802Z,101780.63
2023-05-24T18:19:29.408Z,101785.78
2023-05-24T18:22:32.332Z,101784.13
2023-05-24T18:25:36.730Z,101787.44
2023-05-24T18:28:41.825Z,101793.47
2023-05-24T18:31:44.793Z,101790.69
2023-05-24T18:34:47.694Z,101795.34
2023-05-24T18:37:50.824Z,101793.72
2023-05-24T18:40:55.227Z,101797.50
2023-05-24T18:43:58.216Z,101804.84
2023-05-24T18:47:01.117Z,101798.72
2023-05-24T18:50:04.016Z,101798.59
2023-05-24T18:53:06.777Z,101800.97
2023-05-24T18:56:11.063Z,101806.16
2023-05-24T18:59:14.021Z,101810.47
2023-05-24T19:02:17.060Z,101811.13
2023-05-24T19:05:21.210Z,101809.19
2023-05-24T19:08:24.106Z,101812.41
2023-05-24T19:11:28.251Z,101810.44
2023-05-24T19:14:31.263Z,101811.44
2023-05-24T19:17:34.307Z,101812.22
2023-05-24T19:20:37.459Z,101811.56
2023-05-24T19:23:42.235Z,101823.22
2023-05-24T19:26:46.696Z,101825.09
2023-05-24T19:29:49.463Z,101835.47
2023-05-24T19:32:52.400Z,101829.81
2023-05-24T19:35:55.154Z,101844.66
2023-05-24T19:38:58.054Z,101854.38
2023-05-24T19:42:02.923Z,101848.53
2023-05-24T19:45:06.818Z,101845.66
2023-05-24T19:48:10.004Z,101855.78
2023-05-24T19:51:14.249Z,101854.88
2023-05-24T19:54:16.967Z,101852.44
2023-05-24T19:57:21.244Z,101856.16
2023-05-24T20:00:24.010Z,101864.41
2023-05-24T20:03:27.491Z,101865.63
2023-05-24T20:06:31.411Z,101869.88
2023-05-24T20:09:34.343Z,101872.16
2023-05-24T20:12:38.663Z,101871.97
2023-05-24T20:15:41.738Z,101866.09
2023-05-24T20:18:44.591Z,101863.38
2023-05-24T20:21:47.994Z,101863.50
2023-05-24T20:24:51.183Z,101860.75
2023-05-24T20:27:55.544Z,101863.88
2023-05-24T20:30:58.570Z,101866.38
2023-05-24T20:34:01.587Z,101871.66
2023-05-24T20:37:04.842Z,101870.31
2023-05-24T20:40:09.618Z,101875.84
2023-05-24T20:43:14.102Z,101877.28
2023-05-24T20:46:17.224Z,101880.28
2023-05-24T20:49:20.170Z,101883.97
2023-05-24T20:52:22.902Z,101877.03
2023-05-24T20:55:26.975Z,101877.03
2023-05-24T20:58:31.973Z,101878.59
2023-05-24T21:01:35.049Z,101876.78
2023-05-24T21:04:37.882Z,101885.53
2023-05-24T21:07:40.874Z,101885.16
2023-05-24T21:10:43.730Z,101881.91
2023-05-24T21:13:48.017Z,101887.03
2023-05-24T21:16:50.834Z,101890.63
2023-05-24T21:19:53.824Z,101896.72
2023-05-24T21:22:56.894Z,101901.84
2023-05-24T21:25:59.893Z,101899.94
2023-05-24T21:29:04.166Z,101908.66
2023-05-24T21:32:07.072Z,101899.34
2023-05-24T21:35:10.254Z,101901.50
2023-05-24T21:38:13.204Z,101908.16
2023-05-24T21:41:15.994Z,101913.41
2023-05-24T21:44:20.427Z,101919.00
2023-05-24T21:47:23.266Z,101921.97
2023-05-24T21:50:26.246Z,101915.88
2023-05-24T21:53:29.022Z,101924.13
2023-05-24T21:56:32.017Z,101930.28
2023-05-24T21:59:36.168Z,101932.91
2023-05-24T22:02:39.209Z,101934.66
2023-05-24T22:05:42.128Z,101926.88
2023-05-24T22:08:45.056Z,101932.63
2023-05-24T22:11:47.885Z,101938.78
2023-05-24T22:14:52.210Z,101942.38
2023-05-24T22:17:58.714Z,101936.25
2023-05-24T22:21:02.109Z,101934.00
2023-05-24T22:24:05.184Z,101946.88
2023-05-24T22:27:09.639Z,101945.91
2023-05-24T22:30:15.435Z,101952.00
2023-05-24T22:33:18.470Z,101951.41
2023-05-24T22:36:21.408Z,101946.81
2023-05-24T22:39:24.688Z,101952.78
2023-05-24T22:42:27.546Z,101946.38
2023-05-24T22:45:31.731Z,101942.78
2023-05-24T22:48:34.770Z,101935.16
2023-05-24T22:51:37.634Z,101949.34
2023-05-24T22:54:40.697Z,101952.09
2023-05-24T22:57:43.786Z,101947.91
2023-05-24T23:00:48.215Z,101955.69
2023-05-24T23:03:51.120Z,101954.06
2023-05-24T23:06:53.883Z,101953.44
2023-05-24T23:09:57.120Z,101954.28
2023-05-24T23:12:59.934Z,101956.72
2023-05-24T23:16:05.616Z,101949.97
2023-05-24T23:19:08.411Z,101943.69
2023-05-24T23:22:12.587Z,101948.34
2023-05-24T23:25:15.403Z,101943.91
2023-05-24T23:28:18.478Z,101943.09
2023-05-24T23:31:23.219Z,101942.25
2023-05-24T23:34:26.281Z,101952.53
2023-05-24T23:37:28.995Z,101943.00
2023-05-24T23:40:31.929Z,101950.47
2023-05-24T23:43:34.930Z,101947.13
2023-05-24T23:46:40.841Z,101943.31
2023-05-24T23:49:43.673Z,101954.28
2023-05-24T23:52:46.917Z,101956.81
2023-05-24T23:55:49.884Z,101954.66
2023-05-24T23:58:52.998Z,101955.50
